ADDS METAR Data INFO
IDs: Format: Raw Decoded Include TAF

Data at: 1133 UTC 29 May 2017

KILE 291056Z AUTO 32004KT 6SM BR OVC028 21/20 A2998 RMK AO2 SLP159 T02060200 PNO $
KILE 291032Z AUTO 00000KT 7SM FEW003 OVC028 21/20 A2998 RMK AO2 PNO $
KILE 290956Z AUTO 00000KT 8SM OVC003 21/20 A2999 RMK AO2 SLP162 T02060200 PNO $
KILE 290916Z AUTO 10006KT 6SM BR OVC005 21/20 A2999 RMK AO2 PNO $
KILE 290856Z AUTO 09009KT 10SM OVC007 21/21 A2998 RMK AO2 CIG 004V009 SLP158 6//// T02110206 53002 PNO $
KILE 290847Z AUTO 10004KT 10SM OVC007 21/21 A2998 RMK AO2 PNO $
KILE 290808Z AUTO 08005KT 10SM BKN005 21/20 A2998 RMK AO2 PNO $
KILE 290756Z AUTO 03005KT 10SM SCT005 21/20 A2997 RMK AO2 SLP152 T02060200 PNO $
KILE 290656Z AUTO 34005KT 10SM CLR 20/19 A2998 RMK AO2 SLP154 T02000194 PNO $
KILE 290556Z AUTO 00000KT 10SM CLR 20/19 A3001 RMK AO2 SLP166 6//// T02000194 10244 20200 403170200 53004 PNO $
KILE 290528Z AUTO 32004KT 10SM FEW007 20/19 A3000 RMK AO2 PNO $
KILE 290456Z AUTO 33006KT 10SM CLR 21/19 A2999 RMK AO2 RAE34 PRESRR SLP161 T02060194 PNO $
KILE 290356Z AUTO 07012KT 10SM -RA FEW065 SCT080 OVC095 21/19 A3000 RMK AO2 TSE08 SLP163 T02060194 PNO $
KILE 290256Z AUTO 15008KT 10SM VCTS -RA SCT070 BKN090 21/19 A3000 RMK AO2 LTG DSNT ALQDS TSE36B37 SLP163 6//// T02060194 53012 PNO $
KILE 290237Z AUTO 02008KT 10SM TSRA SCT070 OVC090 21/19 A3002 RMK AO2 LTG DSNT ALQDS TSE36B37 PNO $
KILE 290156Z AUTO 01011KT 10SM -TSRA FEW017 OVC090 21/20 A2996 RMK AO2 WSHFT 0100 LTG DSNT ALQDS TSE37B44 SLP151 P0000 T02110200
KILE 290143Z AUTO 01014KT 10SM -RA SCT017 BKN050 OVC095 22/20 A2995 RMK AO2 WSHFT 0100 LTG DSNT ALQDS TSE37 P0000
KILE 290125Z AUTO 01011KT 10SM VCTS -RA OVC017 23/21 A2996 RMK AO2 WSHFT 0100 LTG DSNT ALQDS P0000
KILE 290056Z AUTO 30016G23KT 10SM -TSRA OVC015 24/21 A2996 RMK AO2 LTG DSNT ALQDS TSB17E46B48 SLP151 P0000 T02440211
KILE 290048Z AUTO 32014G17KT 10SM -TSRA OVC014 24/22 A2995 RMK AO2 LTG DSNT ALQDS TSB17E46B48 P0000
KILE 290026Z AUTO 34007KT 10SM VCTS -RA BKN014 BKN038 BKN047 24/22 A2993 RMK AO2 LTG DSNT ALQDS TSB17 P0000
KILE 282356Z AUTO 01009KT 8SM -RA FEW046 24/22 A2988 RMK AO2 LTG DSNT ALQDS RAB53 SLP124 P0000 60000 T02440217 10317 20244 58005
KILE 282316Z AUTO 36006KT 10SM SCT017 24/22 A2989 RMK AO2 LTG DSNT ALQDS PRESFR
KILE 282256Z AUTO 35010KT 10SM BKN017 25/22 A2991 RMK AO2 LTG DSNT E-SW TSE05B08E23RAB04E14 SLP134 P0000 T02500222
KILE 282250Z AUTO 35008KT 10SM SCT019 BKN045 25/22 A2991 RMK AO2 LTG DSNT E-SW TSE05B08E23RAB04E14 P0000
KILE 282234Z AUTO 36012G19KT 10SM BKN019 25/22 A2991 RMK AO2 LTG DSNT E-SW TSE05B08E23RAB04E14 P0000
KILE 282219Z AUTO 36010KT 10SM VCTS OVC019 26/22 A2990 RMK AO2 LTG DSNT ALQDS TSE05B08RAB04E14 P0000
KILE 282205Z AUTO 35012KT 10SM -RA BKN021 BKN030 OVC035 27/22 A2990 RMK AO2 LTG DSNT ALQDS TSE05RAB04 P0000
KILE 282156Z AUTO 35011KT 10SM TS SCT021 BKN032 BKN039 27/23 A2990 RMK AO2 LTG DSNT ALQDS TSB15RAE03 SLP129 P0000 T02670228
KILE 282130Z AUTO 36011KT 10SM TS SCT025 OVC034 29/23 A2990 RMK AO2 LTG DSNT NE AND E TSB15RAE03 P0000
KILE 282115Z AUTO 35011G17KT 10SM TS BKN023 OVC030 28/23 A2991 RMK AO2 TSB15RAE03 P0000
KILE 282056Z AUTO 35012G17KT 10SM -RA BKN030 OVC039 28/23 A2992 RMK AO2 RAB49 SLP134 P0000 60000 T02830233 55003
KILE 281956Z AUTO 17003KT 10SM OVC037 31/23 A2991 RMK AO2 SLP130 T03060233
KILE 281856Z AUTO 15008KT 10SM OVC035 32/24 A2991 RMK AO2 SLP129 T03170239
KILE 281756Z AUTO 13008KT 10SM SCT033 OVC043 31/24 A2992 RMK AO2 SLP134 T03060239 10311 20228 53004
KILE 281656Z AUTO 18006KT 10SM FEW031 31/23 A2992 RMK AO2 SLP134 T03060233
KILE 281556Z AUTO 15006KT 10SM CLR 29/23 A2991 RMK AO2 SLP130 T02940233
KILE 281456Z AUTO 16006KT 10SM CLR 28/23 A2991 RMK AO2 SLP130 T02830233 53005
KILE 281356Z AUTO 18006KT 10SM CLR 26/23 A2990 RMK AO2 SLP127 T02610228
KILE 281256Z AUTO 16003KT 10SM SCT012 BKN080 24/22 A2990 RMK AO2 SLP127 T02440222
KILE 281242Z AUTO 00000KT 10SM FEW010 BKN080 24/22 A2990 RMK AO2
KILE 281217Z AUTO 31003KT 10SM BKN012 23/22 A2991 RMK AO2
KILE 281156Z AUTO 35008KT 10SM CLR 23/22 A2990 RMK AO2 PRESRR SLP125 60000 T02280217 10256 20222 53030
KILE 280956Z AUTO 20006KT 10SM CLR 23/22 A2982 RMK AO2 SLP097 T02330217
KILE 280856Z AUTO 19013KT 10SM CLR 24/22 A2980 RMK AO2 SLP094 60000 T02390217 55004
KILE 280756Z AUTO 20011KT 10SM CLR 25/22 A2980 RMK AO2 TSE06 SLP091 T02500217
KILE 280717Z AUTO 20011KT 10SM CLR 26/22 A2979 RMK AO2 TSE06
KILE 280656Z AUTO 20009KT 9SM TS CLR 26/22 A2980 RMK AO2 TSB29RAB17E28 SLP091 P0000 T02560222
KILE 280556Z AUTO 18013KT 10SM CLR 26/22 A2982 RMK AO2 SLP099 T02560222 10328 20256 403330244 58004
KILE 280456Z AUTO 18012G18KT 10SM CLR 26/22 A2984 RMK AO2 SLP107 T02610222
KILE 280356Z AUTO 16013G20KT 10SM CLR 27/23 A2984 RMK AO2 SLP108 T02720228
KILE 280256Z AUTO 16014G21KT 10SM CLR 28/23 A2983 RMK AO2 SLP103 T02830233 53011
KILE 280156Z AUTO 16012KT 10SM SCT050 30/24 A2982 RMK AO2 SLP099 T03000239
KILE 280056Z AUTO 16012KT 10SM CLR 31/24 A2980 RMK AO2 SLP093 T03110239
KILE 272356Z AUTO 18008KT 10SM CLR 33/24 A2979 RMK AO2 SLP089 T03280239 10333 20289 56015


Page loaded:  11:33 UTC  |   04:33 AM Pacific  |   05:33 AM Mountain  |   06:33 AM Central  |   07:33 AM Eastern

 

ADVISORIES

FORECASTS

FORECASTS

OBSERVATIONS

USER TOOLS

ABOUT US